Latest Weather Observations for Cocos Island

IDW60801

Issued at 11:04 am WST Friday 20 October 2017 (issued every 30 minutes, with the page automatically refreshed every 10 minutes)

About weather observations | Map of weather stations | Latest weather observations for WA | Other Formats
Station Details ID: 200284 Name: COCOS ISLAND AIRPORT Lat: -12.19 Lon: 96.83 Height: 3.0 m
Data from the previous 72 hours. | See also: Recent months at Cocos Island
Date/Time
WST
Temp
°C
App
Temp
°C
Dew
Point
°C
Rel
Hum
%
Delta-T
°C
Wind Press
QNH
hPa
Press
MSL
hPa
Rain since
9am
mm
Dir  Spd
km/h
Gust
km/h
Spd
kts
Gust
kts
20/11:00am 26.2 23.8 19.0 64 4.6 SE 30 39 16 21 1017.1 1017.0 0.0
20/10:30am 25.9 23.1 18.3 63 4.8 ESE 30 41 16 22 1017.2 - 0.0
20/10:00am 25.9 22.8 17.4 59 5.3 ESE 30 37 16 20 1017.2 - 0.0
20/09:30am 25.6 22.4 17.2 59 5.2 ESE 30 39 16 21 1016.9 - 0.0
20/09:00am 25.4 22.7 17.6 62 4.9 ESE 28 35 15 19 1016.6 - 0.0
20/08:30am 25.0 22.6 18.3 66 4.2 ESE 28 37 15 20 1016.3 - 0.0
20/08:00am 24.8 22.8 18.3 67 4.1 ESE 26 35 14 19 1015.9 1015.8 0.0
20/07:30am 24.6 22.0 17.9 66 4.2 ESE 28 37 15 20 1015.5 - 0.0
20/07:00am 24.5 22.4 17.1 63 4.6 ESE 24 35 13 19 1015.2 - 0.0
20/06:30am 24.4 22.4 17.3 64 4.4 ESE 24 33 13 18 1014.9 - 0.0
20/06:00am 24.3 21.5 17.4 65 4.3 ESE 28 35 15 19 1014.6 - 0.0
20/05:30am 24.3 21.7 17.7 66 4.1 ESE 28 37 15 20 1014.5 - 0.0
20/05:00am 24.2 21.9 17.6 66 4.1 ESE 26 35 14 19 1014.4 1014.3 0.0
20/04:30am 24.2 22.9 18.2 69 3.8 ESE 22 32 12 17 1014.3 - 0.0
20/04:00am 24.2 21.9 17.6 66 4.1 ESE 26 35 14 19 1014.4 - 0.0
20/03:30am 24.1 23.1 17.9 68 3.9 ESE 20 26 11 14 1014.8 - 0.0
20/03:00am 24.3 22.4 17.6 66 4.2 ESE 24 32 13 17 1015.3 - 0.0
20/02:30am 24.2 22.5 18.0 68 3.9 ESE 24 32 13 17 1015.6 - 0.0
20/02:00am 24.3 22.2 18.1 68 3.9 SE 26 33 14 18 1015.9 1015.8 0.0
20/01:30am 24.5 23.0 18.5 69 3.8 ESE 24 32 13 17 1016.3 - 0.0
20/01:00am 24.7 22.7 18.2 67 4.1 SE 26 35 14 19 1016.5 - 0.0
20/12:30am 24.7 22.3 18.2 67 4.1 SE 28 32 15 17 1016.8 - 0.0
20/12:00am 24.8 22.7 18.1 66 4.2 SE 26 35 14 19 1016.9 - 0.0
 
Date/Time
WST
Temp
°C
App
Temp
°C
Dew
Point
°C
Rel
Hum
%
Delta-T
°C
Wind Press
QNH
hPa
Press
MSL
hPa
Rain since
9am
mm
Dir  Spd
km/h
Gust
km/h
Spd
kts
Gust
kts
19/11:30pm 25.0 22.6 18.3 66 4.2 SE 28 33 15 18 1017.1 - 0.0
19/11:00pm 25.0 22.6 18.3 66 4.2 SE 28 33 15 18 1017.0 1016.9 0.0
19/10:30pm 25.1 22.2 17.9 64 4.5 SE 30 37 16 20 1016.8 - 0.0
19/10:00pm 25.2 22.9 18.4 66 4.3 SE 28 39 15 21 1016.6 - 0.0
19/09:30pm 25.3 22.7 18.7 67 4.2 SE 30 35 16 19 1016.5 - 0.0
19/09:00pm 25.4 23.0 19.0 67 4.1 SE 30 39 16 21 1016.2 - 0.0
19/08:30pm 25.4 22.9 18.8 67 4.2 SE 30 39 16 21 1015.8 - 0.0
19/08:00pm 25.4 23.5 19.3 69 3.9 ESE 28 35 15 19 1015.5 1015.4 0.0
19/07:30pm 25.3 22.8 18.9 67 4.1 SE 30 37 16 20 1015.2 - 0.0
19/07:00pm 25.6 23.2 19.9 70 3.7 SE 32 39 17 21 1014.9 - 0.0
19/06:30pm 25.8 23.6 20.3 71 3.6 SE 32 39 17 21 1014.6 - 0.0
19/06:00pm 25.9 23.5 19.9 69 3.9 SE 32 39 17 21 1014.6 - 0.0
19/05:30pm 26.0 23.7 20.2 70 3.8 SE 32 37 17 20 1014.6 - 0.0
19/05:09pm 26.4 24.9 20.3 69 4.0 SE 28 37 15 20 1014.5 - 0.0
19/05:00pm 26.5 24.5 19.9 67 4.3 SE 30 37 16 20 1014.5 1014.4 0.0
19/04:53pm 27.0 25.7 20.6 68 4.2 SE 28 35 15 19 1014.5 - 0.0
19/04:30pm 26.9 25.0 20.2 66 4.4 SE 30 37 16 20 1014.5 - 0.0
19/04:00pm 27.3 25.5 20.3 65 4.6 SE 30 35 16 19 1014.5 - 0.0
19/03:30pm 26.5 24.2 20.2 68 4.1 SE 32 39 17 21 1014.7 - 0.0
19/03:00pm 26.9 25.5 20.5 68 4.2 SE 28 35 15 19 1014.8 - 0.0
19/02:30pm 26.9 24.7 20.3 67 4.3 SE 32 39 17 21 1015.1 - 0.0
19/02:00pm 27.0 25.2 20.4 67 4.3 SE 30 37 16 20 1015.2 1015.1 0.0
19/01:30pm 27.3 25.5 19.6 62 5.0 SE 28 35 15 19 1015.6 - 0.0
19/01:00pm 27.6 26.1 20.3 64 4.8 SE 28 39 15 21 1015.9 - 0.0
19/12:30pm 27.4 25.8 20.0 64 4.8 SE 28 37 15 20 1016.1 - 0.0
19/12:00pm 26.9 24.8 19.8 65 4.6 SE 30 37 16 20 1016.3 - 0.0
19/11:48am 26.4 24.1 19.4 65 4.5 SE 30 37 16 20 1016.4 - 0.0
19/11:33am 26.4 24.2 19.6 66 4.4 SE 30 37 16 20 1016.4 - 0.0
19/11:30am 26.8 25.1 19.9 66 4.5 SE 28 37 15 20 1016.4 - 0.0
19/11:00am 26.5 24.7 19.5 65 4.5 SE 28 35 15 19 1016.4 1016.3 0.0
19/10:30am 26.2 24.1 19.0 64 4.6 SE 28 39 15 21 1016.5 - 0.0
19/10:00am 25.7 23.6 19.0 66 4.3 SE 28 37 15 20 1016.5 - 0.0
19/09:30am 25.3 22.5 18.2 64 4.5 SE 30 37 16 20 1016.1 - 0.0
19/09:00am 25.1 23.2 18.6 67 4.1 ESE 26 35 14 19 1015.8 - 0.0
19/08:30am 24.9 22.6 18.4 67 4.1 ESE 28 37 15 20 1015.3 - 0.0
19/08:00am 24.9 22.4 18.1 66 4.3 ESE 28 35 15 19 1014.8 1014.7 0.0
19/07:30am 24.7 22.4 17.7 65 4.4 ESE 26 33 14 18 1014.5 - 0.0
19/07:00am 24.7 22.5 17.8 65 4.3 ESE 26 37 14 20 1014.1 - 0.0
19/06:30am 24.6 22.1 18.1 67 4.1 ESE 28 35 15 19 1013.7 - 0.0
19/06:00am 24.7 21.8 18.0 66 4.2 ESE 30 37 16 20 1013.4 - 0.0
19/05:30am 24.6 22.7 18.6 69 3.8 ESE 26 35 14 19 1013.3 - 0.0
19/05:00am 24.6 23.2 18.8 70 3.7 ESE 24 32 13 17 1013.2 1013.1 0.0
19/04:30am 23.6 23.0 19.7 79 2.5 ESE 22 32 12 17 1013.4 - 0.0
19/04:00am 23.9 22.9 19.7 77 2.7 ESE 24 33 13 18 1013.5 - 0.0
19/03:30am 24.2 22.7 20.2 78 2.6 ESE 28 35 15 19 1013.8 - 0.0
19/03:27am 24.4 22.5 20.1 77 2.8 SE 30 37 16 20 1013.8 - 0.0
19/03:08am 24.7 22.8 19.4 72 3.4 ESE 28 35 15 19 1014.0 - 0.0
19/03:00am 24.6 22.8 19.6 73 3.2 SE 28 37 15 20 1014.1 - 0.0
19/02:30am 24.6 22.8 19.6 73 3.2 SE 28 33 15 18 1014.4 - 0.0
19/02:00am 24.7 22.7 19.1 71 3.6 SE 28 35 15 19 1014.5 1014.4 0.0
19/01:30am 24.5 22.9 19.2 72 3.4 SE 26 35 14 19 1014.7 - 0.0
19/01:00am 24.7 22.8 19.4 72 3.4 ESE 28 33 15 18 1015.1 - 0.0
19/12:30am 24.8 23.5 19.8 74 3.2 SE 26 32 14 17 1015.3 - 0.0
19/12:00am 24.8 22.9 19.3 71 3.5 ESE 28 37 15 20 1015.6 - 0.0
 
Date/Time
WST
Temp
°C
App
Temp
°C
Dew
Point
°C
Rel
Hum
%
Delta-T
°C
Wind Press
QNH
hPa
Press
MSL
hPa
Rain since
9am
mm
Dir  Spd
km/h
Gust
km/h
Spd
kts
Gust
kts
18/11:30pm 24.8 23.1 19.0 70 3.7 ESE 26 35 14 19 1015.6 - 0.0
18/11:00pm 24.8 22.6 18.8 69 3.8 ESE 28 33 15 18 1015.4 1015.3 0.0
18/10:30pm 24.9 22.4 18.9 69 3.8 SE 30 35 16 19 1015.4 - 0.0
18/10:00pm 24.9 23.1 18.8 69 3.9 ESE 26 32 14 17 1015.3 - 0.0
18/09:30pm 25.0 22.9 19.0 69 3.8 ESE 28 37 15 20 1015.1 - 0.0
18/09:00pm 25.1 22.8 19.3 70 3.7 ESE 30 37 16 20 1015.0 - 0.0
18/08:30pm 25.1 24.0 19.5 71 3.6 ESE 24 35 13 19 1014.8 - 0.0
18/08:00pm 25.2 23.7 19.4 70 3.7 ESE 26 33 14 18 1014.4 1014.3 0.0
18/07:30pm 25.2 23.3 19.3 70 3.8 ESE 28 39 15 21 1014.1 - 0.0
18/07:19pm 25.3 22.7 19.6 70 3.7 ESE 32 39 17 21 1013.9 - 0.0
18/07:00pm 25.2 22.7 18.8 67 4.1 ESE 30 39 16 21 1013.8 - 0.0
18/06:57pm 25.3 22.7 18.7 67 4.2 ESE 30 39 16 21 1013.7 - 0.0
18/06:30pm 25.3 22.8 18.9 67 4.1 ESE 30 39 16 21 1013.3 - 0.0
18/06:00pm 25.8 23.2 19.6 68 4.0 SE 32 41 17 22 1013.0 - 0.0
18/05:30pm 25.9 23.0 19.2 66 4.3 SE 33 41 18 22 1013.1 - 0.0
18/05:00pm 26.5 24.5 19.9 67 4.3 SE 30 37 16 20 1013.2 1013.1 0.0
18/04:30pm 26.2 23.5 19.2 65 4.5 ESE 32 41 17 22 1013.2 - 0.0
18/04:00pm 26.7 24.1 19.6 65 4.6 SE 32 41 17 22 1013.3 - 0.0
18/03:30pm 26.3 23.5 19.5 66 4.4 SE 33 43 18 23 1013.5 - 0.0
18/03:00pm 26.4 23.6 19.4 65 4.5 SE 33 43 18 23 1013.8 - 0.0
18/02:30pm 26.6 23.6 19.0 63 4.9 SE 33 43 18 23 1014.2 - 0.0
18/02:00pm 26.2 23.4 19.4 66 4.4 SE 33 41 18 22 1014.6 1014.5 0.0
18/01:30pm 26.5 23.8 19.7 66 4.4 SE 33 43 18 23 1014.9 - 0.0
18/01:00pm 27.0 24.3 19.6 64 4.8 SE 33 43 18 23 1015.2 - 0.0
18/12:30pm 26.8 24.1 19.7 65 4.6 SE 33 43 18 23 1015.5 - 0.0
18/12:00pm 26.2 23.6 19.4 66 4.4 SE 32 43 17 23 1015.7 - 0.0
18/11:30am 26.4 23.5 18.9 63 4.8 SE 32 39 17 21 1015.9 - 0.0
18/11:00am 25.6 22.4 18.5 65 4.5 SE 33 43 18 23 1016.1 1016.0 0.0
18/10:00am 25.4 22.4 18.6 66 4.3 SE 32 41 17 22 1015.9 - -
18/09:30am 25.5 23.3 18.6 65 4.4 SE 28 39 15 21 1015.6 - -
18/09:00am 24.5 21.5 18.7 70 3.7 SE 32 41 17 22 1015.4 - -
18/08:30am 24.4 22.1 18.4 69 3.8 SE 28 35 15 19 1015.1 - -
18/08:00am 24.2 21.3 18.0 68 3.9 SE 30 41 16 22 1014.7 1014.6 -
18/07:30am 24.2 20.9 18.3 69 3.7 SE 33 43 18 23 1014.4 - -
18/07:00am 24.1 20.9 18.2 69 3.7 SE 32 41 17 22 1014.1 - -
18/06:30am 24.1 21.6 18.0 68 3.8 SE 28 37 15 20 1013.9 - -
18/06:00am 24.0 21.2 18.1 69 3.7 SE 30 35 16 19 1013.6 - -
18/05:30am 24.1 21.5 18.6 71 3.5 SE 30 41 16 22 1013.4 - -
18/05:00am 24.0 20.9 18.3 70 3.6 SE 32 41 17 22 1013.3 1013.2 -
18/04:30am 24.1 21.3 18.2 69 3.7 SE 30 37 16 20 1013.3 - -
18/04:00am 24.1 20.8 17.9 68 3.9 SE 32 41 17 22 1013.4 - -
18/03:30am 24.2 20.4 18.2 69 3.8 SE 35 43 19 23 1013.5 - -
18/03:00am 24.3 20.9 18.1 68 3.9 SE 33 43 18 23 1013.9 - -
18/02:41am 24.2 20.4 18.2 69 3.8 SE 35 44 19 24 1014.1 - -
18/02:30am 24.2 21.0 18.5 70 3.6 SE 33 43 18 23 1014.2 - -
18/02:22am 24.3 21.6 18.4 69 3.7 SE 30 43 16 23 1014.3 - -
18/02:00am 24.2 20.9 18.3 69 3.7 SE 33 43 18 23 1014.5 1014.4 -
18/01:30am 24.2 20.4 18.0 68 3.9 SE 35 43 19 23 1014.8 - -
18/01:00am 24.2 20.9 18.3 69 3.7 SE 33 41 18 22 1015.0 - -
18/12:30am 24.3 21.3 18.6 70 3.6 SE 32 41 17 22 1015.2 - -
18/12:00am 24.3 20.8 18.8 71 3.5 SE 35 43 19 23 1015.2 - -
 
Date/Time
WST
Temp
°C
App
Temp
°C
Dew
Point
°C
Rel
Hum
%
Delta-T
°C
Wind Press
QNH
hPa
Press
MSL
hPa
Rain since
9am
mm
Dir  Spd
km/h
Gust
km/h
Spd
kts
Gust
kts
17/11:30pm 24.4 21.0 18.9 71 3.5 SE 35 44 19 24 1015.1 - -
17/11:00pm 24.5 20.9 19.3 73 3.3 SE 37 44 20 24 1015.0 1014.9 -
17/10:30pm 24.5 20.9 19.3 73 3.3 SE 37 44 20 24 1014.6 - -
17/10:00pm 24.7 21.2 19.7 73 3.2 SE 37 44 20 24 1014.3 - -
17/09:30pm 24.8 21.6 19.5 72 3.4 SE 35 44 19 24 1014.1 - -
17/09:00pm 24.7 21.5 19.4 72 3.4 SE 35 44 19 24 1013.9 - -
17/08:30pm 24.8 22.3 19.7 73 3.3 SE 32 44 17 24 1013.6 - -
17/08:00pm 24.9 21.6 19.3 71 3.6 SE 35 44 19 24 1013.3 1013.2 -
17/07:30pm 24.8 21.5 19.2 71 3.6 SE 35 46 19 25 1012.9 - -
17/07:00pm 24.9 21.8 19.6 72 3.4 SE 35 44 19 24 1012.6 - -
17/06:30pm 25.0 22.0 19.9 73 3.3 SE 35 46 19 25 1012.2 - -
17/06:21pm 25.0 21.6 19.9 73 3.3 SE 37 44 20 24 1012.1 - -
17/06:04pm 25.0 21.7 20.1 74 3.2 SE 37 48 20 26 1012.0 - -
17/06:00pm 25.0 21.3 19.9 73 3.3 SE 39 48 21 26 1011.9 - -
17/05:30pm 25.4 22.1 20.0 72 3.5 SE 37 46 20 25 1011.7 - -
17/05:00pm - - - - - - - - - - - - -
17/04:30pm 25.4 22.6 21.0 76 2.9 SE 37 - 20 - 1011.2 - 0.0
17/04:00pm 26.3 23.7 21.4 74 3.3 SE 37 - 20 - 1011.2 - 0.0
17/03:30pm 26.1 23.3 21.1 74 3.3 SE 37 46 20 25 1011.2 - 0.0
17/03:00pm 26.1 23.4 21.3 75 3.2 SE 37 48 20 26 1012.0 - 0.0
17/02:30pm 26.0 23.7 21.3 75 3.1 SE 35 48 19 26 1012.5 - 0.0
17/02:00pm 26.1 24.0 21.7 77 2.9 SE 35 44 19 24 1013.2 1013.1 0.0
17/01:30pm 26.3 24.5 21.5 75 3.2 SE 33 44 18 24 1013.5 - 0.0
17/01:00pm 25.1 23.3 21.2 79 2.6 ESE 32 41 17 22 1014.0 - 0.0

Other Formats:

Comma delimited format used in spreadsheet applications
http://www.bom.gov.au/fwo/IDW60801/IDW60801.96996.axf

JavaScript Object Notation format (JSON) in row-major order
http://www.bom.gov.au/fwo/IDW60801/IDW60801.96996.json